Loretto, Pennsylvania
Current Conditions -  °F | °C
As of 11:02 PM on Sunday 23 Nov 2014 (Local Time) from KJST Reporting Station
Light Rain Light Rain  
Wind Chill: 37°   Ceiling: 5500
Heat Index: 45°   Visibility: 7mi
Dew Point: 42°   Wind: 18mph
Humidity: 90%   Direction: 140°SE
Pressure: 29.67"   Gusts: 26mph
Location:  40.5°N, 78.63°W
Report Text: KJST 240402Z AUTO 14016G23KT 7SM -RA SCT007 BKN055 OVC075 07/06 A2967 RMK AO2 P0001 T00720056
Loading
Personal Weather Stations






























Interactive Weather Map New forecast layout! Learn more

10-Day Weather Forecast

Advertisements
Track Severe Weather on mobile